Hialeah, Florida
Current Conditions -  °F | °C
As of 7:53 PM on Monday 20 Oct 2014 (Local Time) from KMIA Reporting Station
Broken Clouds Broken Clouds  
Wind Chill: 74°   Ceiling: 25000
Heat Index: 74°   Visibility: 10mi
Dew Point: 71°   Wind: 8mph
Humidity: 91%   Direction: 140°SE
Pressure: 29.96"   Gusts: NA
Location:  25.86°N, 80.29°W
Report Text: KMIA 202353Z 14007KT 10SM FEW030 SCT080 BKN250 23/22 A2996 RMK AO2 SLP146 OCNL LTGIC DSNT E-SE CB DSNT E-SE 60004 T02330217 10294 20233 51005
Loading
Personal Weather Stations






























Interactive Weather Map
Tropical Storm Tracking
New forecast layout! Learn more

10-Day Weather Forecast

Advertisements
Track Severe Weather on mobile